createdAt,value
2019-05-12T00:00:20.637Z,10.34
2019-05-12T00:01:20.669Z,10.40
2019-05-12T00:02:20.632Z,10.37
2019-05-12T00:03:20.642Z,10.42
2019-05-12T00:04:20.622Z,10.28
2019-05-12T00:05:20.604Z,10.32
2019-05-12T00:06:20.612Z,10.40
2019-05-12T00:07:20.596Z,10.55
2019-05-12T00:08:20.599Z,10.43
2019-05-12T00:09:20.587Z,10.43
2019-05-12T00:10:20.581Z,10.33
2019-05-12T00:11:20.577Z,10.26
2019-05-12T00:12:20.563Z,10.33
2019-05-12T00:13:20.557Z,10.18
2019-05-12T00:14:20.555Z,10.22
2019-05-12T00:15:20.557Z,10.22
2019-05-12T00:16:20.539Z,10.22
2019-05-12T00:17:20.538Z,10.15
2019-05-12T00:18:20.600Z,10.18
2019-05-12T00:19:20.523Z,10.18
2019-05-12T00:20:20.515Z,10.01
2019-05-12T00:21:20.512Z,10.06
2019-05-12T00:22:20.512Z,10.04
2019-05-12T00:23:27.529Z,10.06
2019-05-12T00:24:20.491Z,10.04
2019-05-12T00:25:20.488Z,9.97
2019-05-12T00:26:20.478Z,10.09
2019-05-12T00:27:20.505Z,10.04
2019-05-12T00:28:20.460Z,9.88
2019-05-12T00:29:20.472Z,10.06
2019-05-12T00:30:20.453Z,10.03
2019-05-12T00:31:20.452Z,10.03
2019-05-12T00:32:20.434Z,9.99
2019-05-12T00:33:20.438Z,9.96
2019-05-12T00:34:20.429Z,9.96
2019-05-12T00:35:20.420Z,10.06
2019-05-12T00:36:20.413Z,10.10
2019-05-12T00:37:20.423Z,10.06
2019-05-12T00:38:20.397Z,10.06
2019-05-12T00:39:20.398Z,10.09
2019-05-12T00:40:20.402Z,10.06
2019-05-12T00:41:20.379Z,10.04
2019-05-12T00:42:20.378Z,10.07
2019-05-12T00:43:20.366Z,10.19
2019-05-12T00:44:20.396Z,10.21
2019-05-12T00:45:20.361Z,10.09
2019-05-12T00:46:20.350Z,10.01
2019-05-12T00:47:20.353Z,10.21
2019-05-12T00:48:20.335Z,10.39
2019-05-12T00:49:20.333Z,10.56
2019-05-12T00:50:20.337Z,10.77
2019-05-12T00:51:20.339Z,10.80
2019-05-12T00:52:20.397Z,10.34
2019-05-12T00:53:20.307Z,10.15
2019-05-12T00:54:20.304Z,10.06
2019-05-12T00:55:20.293Z,9.96
2019-05-12T00:56:20.287Z,9.83
2019-05-12T00:57:20.285Z,9.93
2019-05-12T00:58:20.277Z,9.88
2019-05-12T00:59:20.268Z,9.88
2019-05-12T01:00:20.268Z,9.97
2019-05-12T01:01:20.256Z,9.96
2019-05-12T01:02:20.251Z,9.94
2019-05-12T01:03:20.237Z,9.86
2019-05-12T01:04:20.237Z,9.85
2019-05-12T01:05:20.228Z,9.86
2019-05-12T01:06:20.218Z,9.82
2019-05-12T01:07:20.226Z,9.82
2019-05-12T01:08:20.205Z,9.76
2019-05-12T01:09:20.203Z,9.70
2019-05-12T01:10:20.201Z,9.66
2019-05-12T01:11:20.184Z,9.76
2019-05-12T01:12:20.188Z,9.68
2019-05-12T01:13:20.180Z,9.67
2019-05-12T01:14:20.174Z,9.64
2019-05-12T01:15:20.166Z,9.61
2019-05-12T01:16:20.164Z,9.64
2019-05-12T01:17:20.161Z,9.66
2019-05-12T01:18:20.155Z,9.70
2019-05-12T01:19:20.159Z,9.67
2019-05-12T01:20:20.128Z,9.64
2019-05-12T01:21:20.123Z,9.64
2019-05-12T01:22:20.124Z,9.63
2019-05-12T01:23:23.331Z,9.63
2019-05-12T01:24:20.139Z,9.68
2019-05-12T01:25:20.105Z,9.66
2019-05-12T01:26:20.088Z,9.71
2019-05-12T01:27:20.093Z,9.70
2019-05-12T01:28:20.084Z,9.60
2019-05-12T01:29:20.077Z,9.58
2019-05-12T01:30:20.063Z,9.49
2019-05-12T01:31:20.053Z,9.57
2019-05-12T01:32:20.061Z,9.56
2019-05-12T01:33:20.042Z,9.60
2019-05-12T01:34:20.039Z,9.60
2019-05-12T01:35:20.031Z,9.61
2019-05-12T01:36:20.035Z,9.60
2019-05-12T01:37:20.013Z,9.64
2019-05-12T01:38:20.018Z,9.64
2019-05-12T01:39:20.001Z,9.68
2019-05-12T01:40:19.996Z,9.70
2019-05-12T01:41:19.991Z,9.66
2019-05-12T01:42:19.985Z,9.70
2019-05-12T01:43:21.200Z,9.63
2019-05-12T01:44:19.973Z,9.71
2019-05-12T01:45:19.965Z,9.70
2019-05-12T01:46:19.958Z,9.66
2019-05-12T01:47:19.947Z,9.76
2019-05-12T01:48:19.948Z,9.89
2019-05-12T01:49:19.939Z,9.85
2019-05-12T01:50:19.925Z,9.78
2019-05-12T01:51:19.927Z,9.66
2019-05-12T01:52:19.912Z,9.73
2019-05-12T01:53:19.906Z,9.78
2019-05-12T01:54:19.905Z,9.64
2019-05-12T01:55:19.902Z,9.78
2019-05-12T01:56:19.892Z,9.73
2019-05-12T01:57:19.877Z,9.82
2019-05-12T01:58:19.875Z,9.83
2019-05-12T01:59:19.912Z,9.64
2019-05-12T02:00:19.873Z,9.73
2019-05-12T02:01:19.852Z,9.67
2019-05-12T02:02:19.846Z,9.66
2019-05-12T02:03:19.843Z,9.83
2019-05-12T02:04:19.836Z,9.78
2019-05-12T02:05:19.834Z,9.82
2019-05-12T02:06:19.819Z,9.78
2019-05-12T02:07:19.822Z,9.68
2019-05-12T02:08:19.812Z,9.66
2019-05-12T02:09:19.804Z,9.64
2019-05-12T02:10:19.793Z,9.63
2019-05-12T02:11:19.820Z,9.57
2019-05-12T02:12:19.786Z,9.67
2019-05-12T02:13:19.784Z,9.66
2019-05-12T02:14:19.768Z,9.61
2019-05-12T02:15:19.761Z,9.60
2019-05-12T02:16:19.757Z,9.60
2019-05-12T02:17:19.749Z,9.61
2019-05-12T02:18:19.747Z,9.48
2019-05-12T02:19:19.734Z,9.50
2019-05-12T02:20:19.734Z,9.49
2019-05-12T02:21:19.731Z,9.52
2019-05-12T02:22:19.718Z,9.56
2019-05-12T02:23:19.713Z,9.63
2019-05-12T02:24:26.531Z,9.63
2019-05-12T02:25:19.696Z,9.64
2019-05-12T02:26:19.694Z,9.57
2019-05-12T02:27:19.685Z,9.49
2019-05-12T02:28:19.674Z,9.52
2019-05-12T02:29:19.672Z,9.49
2019-05-12T02:30:20.475Z,9.45
2019-05-12T02:31:20.635Z,9.46
2019-05-12T02:32:19.650Z,9.46
2019-05-12T02:33:19.639Z,9.50
2019-05-12T02:34:19.655Z,9.49
2019-05-12T02:35:19.632Z,9.49
2019-05-12T02:36:19.628Z,9.50
2019-05-12T02:37:19.613Z,9.53
2019-05-12T02:38:19.603Z,9.56
2019-05-12T02:39:19.609Z,9.52
2019-05-12T02:40:19.599Z,9.34
2019-05-12T02:41:19.582Z,9.30
2019-05-12T02:42:19.578Z,9.49
2019-05-12T02:43:19.571Z,9.48
2019-05-12T02:44:19.564Z,9.48
2019-05-12T02:45:19.565Z,9.52
2019-05-12T02:46:19.554Z,9.49
2019-05-12T02:47:19.584Z,9.43
2019-05-12T02:48:19.537Z,9.52
2019-05-12T02:49:19.541Z,9.52
2019-05-12T02:50:19.528Z,9.40
2019-05-12T02:51:19.525Z,9.45
2019-05-12T02:52:19.513Z,9.42
2019-05-12T02:53:19.513Z,9.32
2019-05-12T02:54:19.524Z,9.42
2019-05-12T02:55:19.491Z,9.38
2019-05-12T02:56:19.488Z,9.30
2019-05-12T02:57:19.510Z,9.31
2019-05-12T02:58:19.471Z,9.32
2019-05-12T02:59:19.463Z,9.31
2019-05-12T03:00:19.457Z,9.28
2019-05-12T03:01:19.463Z,9.23
2019-05-12T03:02:19.436Z,9.24
2019-05-12T03:03:19.438Z,9.24
2019-05-12T03:04:19.425Z,9.28
2019-05-12T03:05:19.425Z,9.24
2019-05-12T03:06:19.417Z,9.23
2019-05-12T03:07:19.404Z,9.13
2019-05-12T03:08:19.399Z,9.12
2019-05-12T03:09:19.391Z,9.15
2019-05-12T03:10:19.385Z,9.09
2019-05-12T03:11:19.376Z,9.04
2019-05-12T03:12:19.370Z,9.05
2019-05-12T03:13:19.382Z,9.06
2019-05-12T03:14:19.364Z,9.05
2019-05-12T03:15:19.364Z,8.93
2019-05-12T03:16:19.343Z,8.97
2019-05-12T03:17:19.341Z,9.02
2019-05-12T03:18:19.333Z,8.90
2019-05-12T03:19:19.330Z,8.91
2019-05-12T03:20:19.325Z,8.76
2019-05-12T03:21:19.310Z,8.86
2019-05-12T03:22:19.306Z,8.75
2019-05-12T03:23:19.766Z,8.83
2019-05-12T03:24:19.291Z,8.84
2019-05-12T03:25:24.671Z,8.81
2019-05-12T03:26:19.323Z,8.86
2019-05-12T03:27:19.276Z,8.83
2019-05-12T03:28:19.315Z,8.86
2019-05-12T03:29:19.255Z,8.79
2019-05-12T03:30:19.943Z,8.76
2019-05-12T03:31:24.983Z,8.81
2019-05-12T03:32:19.231Z,8.84
2019-05-12T03:33:20.459Z,8.86
2019-05-12T03:34:20.711Z,8.79
2019-05-12T03:35:19.241Z,8.69
2019-05-12T03:36:19.208Z,8.73
2019-05-12T03:37:19.204Z,8.68
2019-05-12T03:38:19.196Z,8.69
2019-05-12T03:39:19.181Z,8.87
2019-05-12T03:40:19.170Z,8.81
2019-05-12T03:41:19.160Z,8.76
2019-05-12T03:42:19.164Z,8.69
2019-05-12T03:43:19.155Z,8.68
2019-05-12T03:44:19.145Z,8.68
2019-05-12T03:45:19.140Z,8.87
2019-05-12T03:46:19.134Z,8.81
2019-05-12T03:47:19.120Z,8.76
2019-05-12T03:48:19.116Z,8.88
2019-05-12T03:49:19.123Z,8.83
2019-05-12T03:50:19.101Z,8.78
2019-05-12T03:51:19.106Z,8.84
2019-05-12T03:52:19.094Z,8.79
2019-05-12T03:53:19.088Z,8.69
2019-05-12T03:54:19.067Z,8.65
2019-05-12T03:55:34.499Z,8.68
2019-05-12T03:56:19.056Z,8.83
2019-05-12T03:57:19.074Z,8.60
2019-05-12T03:58:19.038Z,8.66
2019-05-12T03:59:19.038Z,8.65
2019-05-12T04:00:19.038Z,8.68
2019-05-12T04:01:19.025Z,8.58
2019-05-12T04:02:19.015Z,8.69
2019-05-12T04:03:19.002Z,8.63
2019-05-12T04:04:19.007Z,8.71
2019-05-12T04:05:18.992Z,8.62
2019-05-12T04:06:18.990Z,8.54
2019-05-12T04:07:18.970Z,8.63
2019-05-12T04:08:18.972Z,8.71
2019-05-12T04:24:05.494Z,8.91
2019-05-12T04:25:06.063Z,8.93
2019-05-12T04:26:10.923Z,8.88
2019-05-12T04:27:05.388Z,8.83
2019-05-12T04:28:04.734Z,8.87
2019-05-12T04:29:05.109Z,8.91
2019-05-12T04:30:05.487Z,9.18
2019-05-12T04:31:05.471Z,9.21
2019-05-12T04:32:05.148Z,9.01
2019-05-12T04:33:04.883Z,8.97
2019-05-12T04:34:05.159Z,8.90
2019-05-12T04:35:04.813Z,8.94
2019-05-12T04:36:05.635Z,9.12
2019-05-12T04:37:04.571Z,8.88
2019-05-12T04:38:04.477Z,8.86
2019-05-12T04:39:04.349Z,8.88
2019-05-12T04:40:05.398Z,8.94
2019-05-12T04:41:05.878Z,8.97
2019-05-12T04:42:05.277Z,9.04
2019-05-12T04:43:05.822Z,8.97
2019-05-12T04:44:05.811Z,8.86
2019-05-12T04:45:04.597Z,8.78
2019-05-12T04:46:05.069Z,8.71
2019-05-12T04:47:05.562Z,8.60
2019-05-12T04:48:05.231Z,8.58
2019-05-12T04:49:05.223Z,8.69
2019-05-12T04:50:05.445Z,8.68
2019-05-12T04:51:05.011Z,8.78
2019-05-12T04:52:05.303Z,8.65
2019-05-12T04:53:05.971Z,8.75
2019-05-12T04:54:05.881Z,8.71
2019-05-12T04:55:04.713Z,8.66
2019-05-12T04:56:10.942Z,8.60
2019-05-12T04:57:04.272Z,8.68
2019-05-12T04:58:04.439Z,8.69
2019-05-12T04:59:05.073Z,8.69
2019-05-12T05:00:05.095Z,8.71
2019-05-12T05:01:06.415Z,8.88
2019-05-12T05:02:05.420Z,8.78
2019-05-12T05:03:05.110Z,8.75
2019-05-12T05:04:05.351Z,8.68
2019-05-12T05:05:05.420Z,8.76
2019-05-12T05:06:04.476Z,8.55
2019-05-12T05:07:04.451Z,8.53
2019-05-12T05:08:04.305Z,8.45
2019-05-12T05:09:05.089Z,8.45
2019-05-12T05:10:04.646Z,8.60
2019-05-12T05:11:04.172Z,8.65
2019-05-12T05:12:04.634Z,8.68
2019-05-12T05:13:05.388Z,8.76
2019-05-12T05:14:04.369Z,8.75
2019-05-12T05:15:05.433Z,8.99
2019-05-12T05:16:05.468Z,8.88
2019-05-12T05:17:05.523Z,8.91
2019-05-12T05:18:06.199Z,8.97
2019-05-12T05:19:03.715Z,9.10
2019-05-12T05:20:04.098Z,8.93
2019-05-12T05:21:04.727Z,9.02
2019-05-12T05:22:04.357Z,9.12
2019-05-12T05:23:03.705Z,9.23
2019-05-12T05:24:03.917Z,9.12
2019-05-12T05:25:04.265Z,8.91
2019-05-12T05:26:03.448Z,9.04
2019-05-12T05:27:04.453Z,9.06
2019-05-12T05:28:03.946Z,9.13
2019-05-12T05:29:04.343Z,9.12
2019-05-12T05:30:04.155Z,9.13
2019-05-12T05:31:03.660Z,9.27
2019-05-12T05:32:03.578Z,9.24
2019-05-12T05:33:04.538Z,9.23
2019-05-12T05:34:04.788Z,9.20
2019-05-12T05:35:04.619Z,9.28
2019-05-12T05:36:03.564Z,9.30
2019-05-12T05:37:05.215Z,9.13
2019-05-12T05:38:04.517Z,9.09
2019-05-12T05:39:04.328Z,9.24
2019-05-12T05:40:03.914Z,9.52
2019-05-12T05:41:06.088Z,9.49
2019-05-12T05:42:04.583Z,9.46
2019-05-12T05:43:12.153Z,9.42
2019-05-12T05:44:03.324Z,9.53
2019-05-12T05:45:04.847Z,9.48
2019-05-12T05:46:07.782Z,9.49
2019-05-12T05:47:04.379Z,9.40
2019-05-12T05:48:07.442Z,9.48
2019-05-12T05:49:04.209Z,9.45
2019-05-12T05:50:04.755Z,9.49
2019-05-12T05:51:07.472Z,9.63
2019-05-12T05:52:03.642Z,9.38
2019-05-12T05:53:03.976Z,9.60
2019-05-12T05:54:04.017Z,9.57
2019-05-12T05:55:05.895Z,9.52
2019-05-12T05:56:04.087Z,9.57
2019-05-12T05:57:06.080Z,9.53
2019-05-12T05:58:05.739Z,9.50
2019-05-12T05:59:04.488Z,9.42
2019-05-12T06:00:07.335Z,9.38
2019-05-12T06:01:07.748Z,9.49
2019-05-12T06:02:04.909Z,9.52
2019-05-12T06:03:05.234Z,9.45
2019-05-12T06:04:04.396Z,9.48
2019-05-12T06:05:04.418Z,9.38
2019-05-12T06:06:10.435Z,9.61
2019-05-12T06:07:04.152Z,9.56
2019-05-12T06:08:04.176Z,9.52
2019-05-12T06:09:03.767Z,9.46
2019-05-12T06:10:04.121Z,9.70
2019-05-12T06:11:04.851Z,9.71
2019-05-12T06:12:05.242Z,9.70
2019-05-12T06:13:04.146Z,9.75
2019-05-12T06:14:11.105Z,9.71
2019-05-12T06:15:04.192Z,9.57
2019-05-12T06:16:04.426Z,9.67
2019-05-12T06:17:04.288Z,9.66
2019-05-12T06:18:03.667Z,9.71
2019-05-12T06:19:03.459Z,9.63
2019-05-12T06:20:04.462Z,9.67
2019-05-12T06:21:03.572Z,9.73
2019-05-12T06:22:03.979Z,9.67
2019-05-12T06:23:04.306Z,9.58
2019-05-12T06:24:03.668Z,9.64
2019-05-12T06:25:04.855Z,9.70
2019-05-12T06:26:04.436Z,9.81
2019-05-12T06:27:14.347Z,9.79
2019-05-12T06:28:04.617Z,9.81
2019-05-12T06:29:04.492Z,9.83
2019-05-12T06:30:06.122Z,9.96
2019-05-12T06:31:04.267Z,9.94
2019-05-12T06:32:06.237Z,9.93
2019-05-12T06:33:04.204Z,9.94
2019-05-12T06:34:05.950Z,9.96
2019-05-12T06:35:04.537Z,9.91
2019-05-12T06:36:05.516Z,10.15
2019-05-12T06:37:11.632Z,10.01
2019-05-12T06:38:04.982Z,10.09
2019-05-12T06:39:04.346Z,10.06
2019-05-12T06:40:03.577Z,10.04
2019-05-12T06:41:03.639Z,10.24
2019-05-12T06:42:12.749Z,10.17
2019-05-12T06:43:04.387Z,10.06
2019-05-12T06:44:03.743Z,10.21
2019-05-12T06:45:03.689Z,10.22
2019-05-12T06:46:03.629Z,10.17
2019-05-12T06:47:08.078Z,10.28
2019-05-12T06:48:03.435Z,10.17
2019-05-12T06:49:10.179Z,10.32
2019-05-12T06:50:03.970Z,10.39
2019-05-12T06:51:04.027Z,10.25
2019-05-12T06:52:06.907Z,10.34
2019-05-12T06:53:05.163Z,10.32
2019-05-12T06:54:07.394Z,10.18
2019-05-12T06:55:04.068Z,10.18
2019-05-12T06:56:04.537Z,10.10
2019-05-12T06:57:18.639Z,10.04
2019-05-12T06:58:04.671Z,10.00
2019-05-12T06:59:09.991Z,10.03
2019-05-12T07:00:04.503Z,10.14
2019-05-12T07:01:10.161Z,10.03
2019-05-12T07:02:03.409Z,10.04
2019-05-12T07:03:03.951Z,10.14
2019-05-12T07:04:06.803Z,10.01
2019-05-12T07:05:04.359Z,10.04
2019-05-12T07:06:04.059Z,10.07
2019-05-12T07:07:03.582Z,10.24
2019-05-12T07:08:04.179Z,10.15
2019-05-12T07:09:09.202Z,10.26
2019-05-12T07:10:11.617Z,10.32
2019-05-12T07:11:05.915Z,10.34
2019-05-12T07:12:06.966Z,10.24
2019-05-12T07:13:05.503Z,10.19
2019-05-12T07:14:07.793Z,10.12
2019-05-12T07:15:03.768Z,10.15
2019-05-12T07:16:03.753Z,10.06
2019-05-12T07:17:05.589Z,9.96
2019-05-12T07:18:04.297Z,9.88
2019-05-12T07:19:07.680Z,9.96
2019-05-12T07:20:03.961Z,10.14
2019-05-12T07:21:04.123Z,9.99
2019-05-12T07:22:03.602Z,10.00
2019-05-12T07:23:03.986Z,9.97
2019-05-12T07:24:06.752Z,10.21
2019-05-12T07:25:04.538Z,10.19
2019-05-12T07:26:06.749Z,10.19
2019-05-12T07:27:08.767Z,10.34
2019-05-12T07:28:06.853Z,10.34
2019-05-12T07:29:04.430Z,10.36
2019-05-12T07:30:04.677Z,10.32
2019-05-12T07:31:03.923Z,10.40
2019-05-12T07:32:07.087Z,10.30
2019-05-12T07:33:04.537Z,10.36
2019-05-12T07:34:05.310Z,10.43
2019-05-12T07:35:03.935Z,10.37
2019-05-12T07:36:06.380Z,10.44
2019-05-12T07:37:04.360Z,10.46
2019-05-12T07:38:04.542Z,10.55
2019-05-12T07:39:04.505Z,10.52
2019-05-12T07:40:04.834Z,10.56
2019-05-12T07:41:06.797Z,10.65
2019-05-12T07:42:03.622Z,10.84
2019-05-12T07:43:04.004Z,10.80
2019-05-12T07:44:03.597Z,10.76
2019-05-12T07:45:03.987Z,10.65
2019-05-12T07:46:06.894Z,10.74
2019-05-12T07:47:03.610Z,10.56
2019-05-12T07:48:07.723Z,10.59
2019-05-12T07:49:03.894Z,10.55
2019-05-12T07:50:04.502Z,10.53
2019-05-12T07:51:04.162Z,10.37
2019-05-12T07:52:03.635Z,10.39
2019-05-12T07:53:04.078Z,10.53
2019-05-12T07:54:04.065Z,10.44
2019-05-12T07:55:04.272Z,10.51
2019-05-12T07:56:04.174Z,10.60
2019-05-12T07:57:11.229Z,10.66
2019-05-12T07:58:10.257Z,10.68
2019-05-12T07:59:04.385Z,10.63
2019-05-12T08:00:03.643Z,10.59
2019-05-12T08:01:05.108Z,10.63
2019-05-12T08:02:03.878Z,10.66
2019-05-12T08:03:08.015Z,10.62
2019-05-12T08:04:04.373Z,10.52
2019-05-12T08:05:03.808Z,10.51
2019-05-12T08:06:04.609Z,10.60
2019-05-12T08:07:03.868Z,10.55
2019-05-12T08:08:06.984Z,10.53
2019-05-12T08:09:04.153Z,10.56
2019-05-12T08:10:07.309Z,10.44
2019-05-12T08:11:04.471Z,10.52
2019-05-12T08:12:04.026Z,10.65
2019-05-12T08:13:04.476Z,10.53
2019-05-12T08:14:03.637Z,10.55
2019-05-12T08:15:07.734Z,10.51
2019-05-12T08:16:03.726Z,10.44
2019-05-12T08:17:11.176Z,10.55
2019-05-12T08:18:07.418Z,10.63
2019-05-12T08:19:03.993Z,10.60
2019-05-12T08:20:04.400Z,10.56
2019-05-12T08:21:03.775Z,10.66
2019-05-12T08:22:04.301Z,10.63
2019-05-12T08:23:05.856Z,10.70
2019-05-12T08:24:03.820Z,10.53
2019-05-12T08:25:04.172Z,10.47
2019-05-12T08:26:03.604Z,10.63
2019-05-12T08:27:06.286Z,10.59
2019-05-12T08:28:14.132Z,10.59
2019-05-12T08:29:04.261Z,10.73
2019-05-12T08:30:05.907Z,10.89
2019-05-12T08:31:03.575Z,10.86
2019-05-12T08:32:03.755Z,10.96
2019-05-12T08:33:08.981Z,10.98
2019-05-12T08:34:04.205Z,10.95
2019-05-12T08:35:04.896Z,10.94
2019-05-12T08:36:10.813Z,10.83
2019-05-12T08:37:04.305Z,10.73
2019-05-12T08:38:03.939Z,10.76
2019-05-12T08:39:05.924Z,10.74
2019-05-12T08:40:04.287Z,10.88
2019-05-12T08:41:04.310Z,11.01
2019-05-12T08:42:04.050Z,10.99
2019-05-12T08:43:08.052Z,11.01
2019-05-12T08:44:04.448Z,10.88
2019-05-12T08:45:04.129Z,10.86
2019-05-12T08:46:09.885Z,10.83
2019-05-12T08:47:03.937Z,10.81
2019-05-12T08:48:03.872Z,10.89
2019-05-12T08:49:03.038Z,10.86
2019-05-12T08:50:04.803Z,11.01
2019-05-12T08:51:05.244Z,10.84
2019-05-12T08:52:03.817Z,10.86
2019-05-12T08:53:04.458Z,10.83
2019-05-12T08:54:05.439Z,10.95
2019-05-12T08:55:04.269Z,11.03
2019-05-12T08:56:06.590Z,10.92
2019-05-12T08:57:03.879Z,10.89
2019-05-12T08:58:03.756Z,10.74
2019-05-12T08:59:04.242Z,10.81
2019-05-12T09:00:06.701Z,10.92
2019-05-12T09:01:04.412Z,11.02
2019-05-12T09:02:07.329Z,11.03
2019-05-12T09:03:03.602Z,11.16
2019-05-12T09:04:06.612Z,11.02
2019-05-12T09:05:04.630Z,11.02
2019-05-12T09:06:04.097Z,10.94
2019-05-12T09:07:04.323Z,10.99
2019-05-12T09:08:03.742Z,10.99
2019-05-12T09:09:03.482Z,10.96
2019-05-12T09:10:04.088Z,11.01
2019-05-12T09:11:03.578Z,11.01
2019-05-12T09:12:03.581Z,10.91
2019-05-12T09:13:04.004Z,10.98
2019-05-12T09:14:03.557Z,10.99
2019-05-12T09:15:04.273Z,10.99
2019-05-12T09:16:04.202Z,10.98
2019-05-12T09:17:06.628Z,10.83
2019-05-12T09:18:04.389Z,10.84
2019-05-12T09:19:04.658Z,11.02
2019-05-12T09:20:06.933Z,10.96
2019-05-12T09:21:03.840Z,11.06
2019-05-12T09:22:04.874Z,10.92
2019-05-12T09:23:04.719Z,11.06
2019-05-12T09:24:04.094Z,11.03
2019-05-12T09:25:06.178Z,11.09
2019-05-12T09:26:03.768Z,11.11
2019-05-12T09:27:07.011Z,11.07
2019-05-12T09:28:03.796Z,11.13
2019-05-12T09:29:03.422Z,11.10
2019-05-12T09:30:08.085Z,11.09
2019-05-12T09:31:03.729Z,11.06
2019-05-12T09:32:05.357Z,11.17
2019-05-12T09:33:04.120Z,11.07
2019-05-12T09:34:05.493Z,11.09
2019-05-12T09:35:03.925Z,11.03
2019-05-12T09:36:04.174Z,11.14
2019-05-12T09:37:04.065Z,11.25
2019-05-12T09:38:03.663Z,11.35
2019-05-12T09:39:03.810Z,11.25
2019-05-12T09:40:04.362Z,11.25
2019-05-12T09:41:03.267Z,11.17
2019-05-12T09:42:03.812Z,11.24
2019-05-12T09:43:07.737Z,11.25
2019-05-12T09:44:04.407Z,11.25
2019-05-12T09:45:08.744Z,11.24
2019-05-12T09:46:04.214Z,11.24
2019-05-12T09:47:03.914Z,11.03
2019-05-12T09:48:04.934Z,11.20
2019-05-12T09:49:03.999Z,11.24
2019-05-12T09:50:04.194Z,11.20
2019-05-12T09:51:04.662Z,11.10
2019-05-12T09:52:03.731Z,11.17
2019-05-12T09:53:09.261Z,11.21
2019-05-12T09:54:01.962Z,11.21
2019-05-12T09:55:04.086Z,11.32
2019-05-12T09:56:04.304Z,11.28
2019-05-12T09:57:04.262Z,11.38
2019-05-12T09:58:03.918Z,11.34
2019-05-12T09:59:10.975Z,11.24
2019-05-12T10:00:04.238Z,11.21
2019-05-12T10:01:03.616Z,11.29
2019-05-12T10:02:03.758Z,11.28
2019-05-12T10:03:04.337Z,11.28
2019-05-12T10:04:03.447Z,11.34
2019-05-12T10:05:03.889Z,11.44
2019-05-12T10:06:03.672Z,11.38
2019-05-12T10:07:03.813Z,11.47
2019-05-12T10:08:04.289Z,11.47
2019-05-12T10:09:03.434Z,11.56
2019-05-12T10:10:03.668Z,11.57
2019-05-12T10:11:03.753Z,11.46
2019-05-12T10:12:03.272Z,11.59
2019-05-12T10:13:04.293Z,11.53
2019-05-12T10:14:08.607Z,11.53
2019-05-12T10:15:04.101Z,11.50
2019-05-12T10:16:04.870Z,11.49
2019-05-12T10:17:03.626Z,11.47
2019-05-12T10:18:06.475Z,11.35
2019-05-12T10:19:03.949Z,11.36
2019-05-12T10:20:01.860Z,11.29
2019-05-12T10:21:01.858Z,11.36
2019-05-12T10:22:01.871Z,11.39
2019-05-12T10:23:04.044Z,11.49
2019-05-12T10:24:04.519Z,11.47
2019-05-12T10:25:03.893Z,11.49
2019-05-12T10:26:09.974Z,11.46
2019-05-12T10:27:03.832Z,11.28
2019-05-12T10:28:03.021Z,11.34
2019-05-12T10:29:14.259Z,11.32
2019-05-12T10:30:03.276Z,11.44
2019-05-12T10:31:04.011Z,11.53
2019-05-12T10:32:03.814Z,11.52
2019-05-12T10:33:03.814Z,11.52
2019-05-12T10:34:03.375Z,11.61
2019-05-12T10:35:01.813Z,11.53
2019-05-12T10:36:06.872Z,11.65
2019-05-12T10:37:03.767Z,11.52
2019-05-12T10:38:06.193Z,11.72
2019-05-12T10:39:01.777Z,11.65
2019-05-12T10:40:03.677Z,11.72
2019-05-12T10:41:03.797Z,11.67
2019-05-12T10:42:01.791Z,11.70
2019-05-12T10:43:04.151Z,11.85
2019-05-12T10:44:03.735Z,11.85
2019-05-12T10:45:04.189Z,11.90
2019-05-12T10:46:04.043Z,11.94
2019-05-12T10:47:04.235Z,11.96
2019-05-12T10:48:03.625Z,11.96
2019-05-12T10:49:03.835Z,11.90
2019-05-12T10:50:01.736Z,11.80
2019-05-12T10:51:01.762Z,11.68
2019-05-12T10:52:03.724Z,11.75
2019-05-12T10:53:04.219Z,11.87
2019-05-12T10:54:10.006Z,11.82
2019-05-12T10:55:01.736Z,11.83
2019-05-12T10:56:01.718Z,11.80
2019-05-12T10:57:01.710Z,11.75
2019-05-12T10:58:06.324Z,11.65
2019-05-12T10:59:04.125Z,11.65
2019-05-12T11:00:03.975Z,11.70
2019-05-12T11:01:05.215Z,11.74
2019-05-12T11:02:03.490Z,11.82
2019-05-12T11:03:09.599Z,11.87
2019-05-12T11:04:03.850Z,11.96
2019-05-12T11:05:01.685Z,11.97
2019-05-12T11:06:03.182Z,11.99
2019-05-12T11:07:01.669Z,12.01
2019-05-12T11:08:08.568Z,11.94
2019-05-12T11:09:03.731Z,11.96
2019-05-12T11:10:05.111Z,12.02
2019-05-12T11:11:04.030Z,12.01
2019-05-12T11:12:03.399Z,11.96
2019-05-12T11:13:06.785Z,12.16
2019-05-12T11:14:03.822Z,12.08
2019-05-12T11:15:06.655Z,11.94
2019-05-12T11:16:03.661Z,12.15
2019-05-12T11:17:02.013Z,12.05
2019-05-12T11:18:01.629Z,12.06
2019-05-12T11:19:06.385Z,11.93
2019-05-12T11:20:03.980Z,12.06
2019-05-12T11:21:03.647Z,11.94
2019-05-12T11:22:03.680Z,12.09
2019-05-12T11:23:03.493Z,12.08
2019-05-12T11:24:03.723Z,11.93
2019-05-12T11:25:04.082Z,12.09
2019-05-12T11:26:03.724Z,12.12
2019-05-12T11:27:03.917Z,12.13
2019-05-12T11:28:03.784Z,12.12
2019-05-12T11:29:03.679Z,12.16
2019-05-12T11:30:04.069Z,12.20
2019-05-12T11:31:01.600Z,12.33
2019-05-12T11:32:01.604Z,12.27
2019-05-12T11:33:04.036Z,12.41
2019-05-12T11:34:01.642Z,12.39
2019-05-12T11:35:03.961Z,12.20
2019-05-12T11:36:01.567Z,12.37
2019-05-12T11:37:03.445Z,12.27
2019-05-12T11:38:04.110Z,12.38
2019-05-12T11:39:03.604Z,12.42
2019-05-12T11:40:04.187Z,12.51
2019-05-12T11:41:01.551Z,12.39
2019-05-12T11:42:01.577Z,12.21
2019-05-12T11:43:04.118Z,12.15
2019-05-12T11:44:03.840Z,12.21
2019-05-12T11:45:01.534Z,12.26
2019-05-12T11:46:01.536Z,12.30
2019-05-12T11:47:03.684Z,12.41
2019-05-12T11:48:05.955Z,12.38
2019-05-12T11:49:01.527Z,12.31
2019-05-12T11:50:05.254Z,12.27
2019-05-12T11:51:03.744Z,12.27
2019-05-12T11:52:07.352Z,12.21
2019-05-12T11:53:03.923Z,12.42
2019-05-12T11:54:03.428Z,12.21
2019-05-12T11:55:01.497Z,12.33
2019-05-12T11:56:02.355Z,12.56
2019-05-12T11:57:01.492Z,12.59
2019-05-12T11:58:09.136Z,12.59
2019-05-12T11:59:01.485Z,12.51
2019-05-12T12:00:02.155Z,12.59
2019-05-12T12:01:04.738Z,12.60
2019-05-12T12:02:01.476Z,12.56
2019-05-12T12:03:03.881Z,12.54
2019-05-12T12:04:03.614Z,12.44
2019-05-12T12:05:01.461Z,12.42
2019-05-12T12:06:01.466Z,12.52
2019-05-12T12:07:01.463Z,12.63
2019-05-12T12:08:03.714Z,12.52
2019-05-12T12:09:01.449Z,12.52
2019-05-12T12:10:03.591Z,12.59
2019-05-12T12:11:02.022Z,12.74
2019-05-12T12:12:05.595Z,12.71
2019-05-12T12:13:03.509Z,12.63
2019-05-12T12:14:06.353Z,12.62
2019-05-12T12:15:01.433Z,12.69
2019-05-12T12:16:06.824Z,12.57
2019-05-12T12:17:01.421Z,12.63
2019-05-12T12:18:03.977Z,12.66
2019-05-12T12:19:05.061Z,12.69
2019-05-12T12:20:03.588Z,12.79
2019-05-12T12:21:05.796Z,12.84
2019-05-12T12:22:01.413Z,12.71
2019-05-12T12:23:08.737Z,12.67
2019-05-12T12:24:03.768Z,12.71
2019-05-12T12:25:05.099Z,12.70
2019-05-12T12:26:01.388Z,12.74
2019-05-12T12:27:01.392Z,12.63
2019-05-12T12:28:01.403Z,12.70
2019-05-12T12:29:03.194Z,12.71
2019-05-12T12:30:13.745Z,12.69
2019-05-12T12:31:05.072Z,12.70
2019-05-12T12:32:01.363Z,12.66
2019-05-12T12:33:03.603Z,12.75
2019-05-12T12:34:01.366Z,12.66
2019-05-12T12:35:07.302Z,12.54
2019-05-12T12:36:01.356Z,12.56
2019-05-12T12:37:03.297Z,12.56
2019-05-12T12:38:03.386Z,12.71
2019-05-12T12:39:01.347Z,12.75
2019-05-12T12:40:04.065Z,12.82
2019-05-12T12:41:01.331Z,12.92
2019-05-12T12:42:01.338Z,12.82
2019-05-12T12:43:03.684Z,12.96
2019-05-12T12:44:01.326Z,12.95
2019-05-12T12:45:04.057Z,13.02
2019-05-12T12:46:01.314Z,12.99
2019-05-12T12:47:01.929Z,12.96
2019-05-12T12:48:01.305Z,13.00
2019-05-12T12:49:06.469Z,13.06
2019-05-12T12:50:01.319Z,13.02
2019-05-12T12:51:01.300Z,12.96
2019-05-12T12:52:03.233Z,12.88
2019-05-12T12:53:01.304Z,13.00
2019-05-12T12:54:03.163Z,13.00
2019-05-12T12:55:06.845Z,13.02
2019-05-12T12:56:01.282Z,12.87
2019-05-12T12:57:06.534Z,12.84
2019-05-12T12:58:03.345Z,12.84
2019-05-12T12:59:09.909Z,12.95
2019-05-12T13:00:03.427Z,13.00
2019-05-12T13:01:03.554Z,13.11
2019-05-12T13:02:05.910Z,13.24
2019-05-12T13:03:03.547Z,13.15
2019-05-12T13:04:04.708Z,13.20
2019-05-12T13:05:01.264Z,13.07
2019-05-12T13:06:01.261Z,13.18
2019-05-12T13:07:01.257Z,13.18
2019-05-12T13:08:04.065Z,13.24
2019-05-12T13:09:01.237Z,13.24
2019-05-12T13:10:04.581Z,13.25
2019-05-12T13:11:01.238Z,13.15
2019-05-12T13:12:05.929Z,13.32
2019-05-12T13:13:04.023Z,13.27
2019-05-12T13:14:01.222Z,13.38
2019-05-12T13:15:01.228Z,13.27
2019-05-12T13:16:01.212Z,13.29
2019-05-12T13:17:01.219Z,13.32
2019-05-12T13:18:01.213Z,13.30